Time;durP1;ratioP1;P1;durP2;ratioP2;P2;SDS_P1;SDS_P2;PMS_P1;PMS_P2;Temp;Humidity;BMP_temperature;BMP_pressure;BME280_temperature;BME280_humidity;BME280_pressure;Samples;Min_cycle;Max_cycle;Signal;HPM_P1;HPM_P2
2021/04/30 00:00:16;;;;;;;7.13;6.43;;;;;;;8.27;70.24;95672.22;5080544;28;20445;-81
2021/04/30 00:02:43;;;;;;;7.70;6.87;;;;;;;8.30;70.60;95668.47;5080575;28;20446;-81
2021/04/30 00:05:10;;;;;;;7.13;5.90;;;;;;;8.30;70.23;95671.16;5080694;28;20441;-81
2021/04/30 00:07:38;;;;;;;10.27;6.70;;;;;;;8.27;70.01;95668.84;5080563;28;20450;-81
2021/04/30 00:10:05;;;;;;;7.57;6.57;;;;;;;8.32;69.79;95668.66;5079976;28;20453;-82
2021/04/30 00:12:31;;;;;;;8.97;7.10;;;;;;;8.24;70.62;95669.94;5080458;28;20484;-82
2021/04/30 00:14:57;;;;;;;8.43;6.97;;;;;;;8.28;69.39;95671.00;5083975;28;20519;-82
2021/04/30 00:17:23;;;;;;;8.20;6.47;;;;;;;8.33;69.75;95658.63;5086801;28;20469;-82
2021/04/30 00:19:49;;;;;;;6.70;6.00;;;;;;;8.28;70.32;95656.84;5087983;28;20452;-82
2021/04/30 00:22:16;;;;;;;7.07;6.37;;;;;;;8.45;69.89;95663.09;5087817;28;20446;-81
2021/04/30 00:24:42;;;;;;;7.90;7.00;;;;;;;8.32;69.69;95649.13;5088022;28;20506;-80
2021/04/30 00:27:09;;;;;;;9.47;7.10;;;;;;;8.36;69.74;95654.88;5088279;28;20461;-80
2021/04/30 00:29:35;;;;;;;8.70;6.60;;;;;;;8.44;68.99;95663.63;5088349;28;20460;-81
2021/04/30 00:32:01;;;;;;;8.30;6.90;;;;;;;8.30;69.39;95668.47;5086699;28;20449;-81
2021/04/30 00:34:27;;;;;;;7.70;6.60;;;;;;;8.41;69.49;95667.38;5086263;28;20481;-81
2021/04/30 00:36:53;;;;;;;9.03;7.60;;;;;;;8.34;69.23;95676.19;5085471;28;20492;-81
2021/04/30 00:39:22;;;;;;;10.47;7.87;;;;;;;8.36;68.93;95671.72;5080033;28;20546;-81
2021/04/30 00:41:49;;;;;;;9.30;6.53;;;;;;;8.41;69.30;95672.75;5079833;28;20575;-81
2021/04/30 00:44:15;;;;;;;9.83;7.50;;;;;;;8.39;68.47;95675.28;5079255;28;20487;-81
2021/04/30 00:46:41;;;;;;;11.50;7.03;;;;;;;8.41;68.83;95672.75;5081329;28;20477;-81
2021/04/30 00:49:07;;;;;;;9.43;8.00;;;;;;;8.50;68.48;95672.91;5079614;28;20409;-81
2021/04/30 00:51:33;;;;;;;7.97;6.70;;;;;;;8.48;68.62;95669.34;5080643;28;20479;-81
2021/04/30 00:54:00;;;;;;;9.07;7.40;;;;;;;8.40;68.72;95671.31;5097939;28;20508;-85
2021/04/30 00:56:26;;;;;;;9.73;7.37;;;;;;;8.39;68.16;95676.00;5098055;28;20526;-83
2021/04/30 00:58:53;;;;;;;12.00;7.80;;;;;;;8.17;68.51;95674.06;5098061;28;20460;-82
2021/04/30 01:01:19;;;;;;;10.23;8.70;;;;;;;8.20;69.25;95666.88;5090842;28;20519;-82
2021/04/30 01:03:47;;;;;;;11.00;8.53;;;;;;;8.20;68.83;95670.28;5077759;28;20864;-81
2021/04/30 01:06:13;;;;;;;9.70;7.03;;;;;;;8.22;68.98;95672.41;5077787;28;20447;-82
2021/04/30 01:08:39;;;;;;;9.77;7.30;;;;;;;8.16;68.89;95688.72;5078143;28;20412;-81
2021/04/30 01:11:06;;;;;;;8.47;7.30;;;;;;;8.17;68.55;95679.44;5078206;28;20445;-82
2021/04/30 01:13:32;;;;;;;10.60;8.23;;;;;;;8.12;67.76;95679.59;5078272;28;20429;-82
2021/04/30 01:15:59;;;;;;;11.53;8.37;;;;;;;7.97;68.62;95675.69;5079884;28;20488;-85
2021/04/30 01:18:25;;;;;;;10.27;8.50;;;;;;;8.07;68.85;95673.16;5079976;28;20954;-84
2021/04/30 01:20:51;;;;;;;8.40;7.60;;;;;;;8.18;67.88;95680.13;5083410;28;20551;-84
2021/04/30 01:23:18;;;;;;;9.83;7.37;;;;;;;8.17;67.95;95684.81;5082502;28;20551;-84
2021/04/30 01:25:44;;;;;;;8.40;7.40;;;;;;;8.12;68.38;95696.44;5083917;28;20435;-84
2021/04/30 01:28:10;;;;;;;10.80;7.53;;;;;;;8.14;67.07;95693.22;5086057;28;20520;-84
2021/04/30 01:30:39;;;;;;;9.40;7.90;;;;;;;8.16;66.18;95688.72;5085479;28;20408;-84
2021/04/30 01:33:16;;;;;;;11.27;8.53;;;;;;;8.20;66.10;95693.75;5087558;28;20415;-84
2021/04/30 01:35:42;;;;;;;10.50;7.70;;;;;;;8.17;65.67;95687.50;5088163;28;20518;-84
2021/04/30 01:38:09;;;;;;;9.17;7.33;;;;;;;8.23;65.50;95693.38;5082149;28;20472;-84
2021/04/30 01:40:37;;;;;;;10.33;8.00;;;;;;;8.16;65.39;95686.06;5080732;28;20517;-83
2021/04/30 01:43:06;;;;;;;12.17;6.90;;;;;;;8.20;65.05;95674.94;5080895;28;20472;-84
2021/04/30 01:45:35;;;;;;;11.63;8.13;;;;;;;8.05;65.55;95672.97;5080500;28;20445;-84
2021/04/30 01:48:02;;;;;;;11.93;8.00;;;;;;;7.82;66.20;95677.66;5081599;28;20469;-83
2021/04/30 01:50:28;;;;;;;12.50;9.07;;;;;;;7.91;66.25;95685.91;5083309;28;20494;-84
2021/04/30 01:52:54;;;;;;;10.87;7.57;;;;;;;8.02;66.15;95687.50;5082977;28;20531;-82
2021/04/30 01:55:24;;;;;;;11.20;7.90;;;;;;;8.10;65.93;95688.22;5082836;28;20583;-82
2021/04/30 01:57:51;;;;;;;9.20;7.97;;;;;;;8.19;65.70;95679.59;5083026;28;20459;-81
2021/04/30 02:00:23;;;;;;;11.07;7.97;;;;;;;8.31;64.83;95691.41;5083299;28;20457;-82
2021/04/30 02:02:50;;;;;;;10.60;7.30;;;;;;;8.28;65.31;95703.25;5082810;28;20525;-80
2021/04/30 02:05:16;;;;;;;11.77;7.77;;;;;;;8.27;65.28;95691.03;5083515;28;20461;-81
2021/04/30 02:07:42;;;;;;;11.70;7.80;;;;;;;8.31;65.33;95704.13;5081996;28;20793;-81
2021/04/30 02:10:14;;;;;;;12.03;8.03;;;;;;;8.30;65.08;95713.47;5082699;28;20936;-81
2021/04/30 02:12:41;;;;;;;9.67;8.27;;;;;;;8.30;65.35;95698.03;5082769;28;20434;-81
2021/04/30 02:15:09;;;;;;;8.60;7.37;;;;;;;8.24;65.89;95694.09;5082591;28;20523;-84
2021/04/30 02:17:36;;;;;;;9.43;8.17;;;;;;;8.43;65.02;95691.75;5083670;28;20933;-84
2021/04/30 02:20:03;;;;;;;13.50;8.17;;;;;;;8.37;65.63;95700.00;5084310;28;20415;-84
2021/04/30 02:22:29;;;;;;;11.33;7.97;;;;;;;8.36;66.12;95700.56;5082767;28;20414;-84
2021/04/30 02:24:55;;;;;;;10.40;8.07;;;;;;;8.47;65.27;95711.63;5083002;28;20437;-84
2021/04/30 02:27:21;;;;;;;12.07;8.63;;;;;;;8.48;65.62;95707.69;5082696;28;20503;-84
2021/04/30 02:29:47;;;;;;;12.20;9.20;;;;;;;8.54;66.27;95710.91;5083421;28;20532;-84
2021/04/30 02:32:14;;;;;;;12.40;8.97;;;;;;;8.41;67.03;95696.97;5082465;28;20455;-84
2021/04/30 02:34:40;;;;;;;10.80;9.07;;;;;;;8.13;68.48;95703.25;5082159;28;20996;-85
2021/04/30 02:37:06;;;;;;;11.70;9.07;;;;;;;7.90;70.33;95700.56;5081677;28;20547;-84
2021/04/30 02:39:32;;;;;;;13.07;10.33;;;;;;;7.93;70.78;95696.09;5083733;28;20412;-84
2021/04/30 02:41:58;;;;;;;11.30;9.67;;;;;;;7.88;69.86;95692.34;5082554;28;20400;-84
2021/04/30 02:44:24;;;;;;;13.23;9.73;;;;;;;7.92;69.75;95679.28;5083783;28;20465;-84
2021/04/30 02:46:51;;;;;;;13.77;10.17;;;;;;;7.77;70.57;95673.91;5083040;28;20515;-84
2021/04/30 02:49:25;;;;;;;15.63;10.83;;;;;;;7.57;70.41;95677.50;5083142;28;20430;-84
2021/04/30 02:51:51;;;;;;;13.40;9.87;;;;;;;7.85;71.60;95669.25;5071334;28;20461;-84
2021/04/30 02:54:17;;;;;;;10.90;9.80;;;;;;;7.72;71.36;95666.75;5079776;28;20477;-84
2021/04/30 02:56:43;;;;;;;13.97;10.80;;;;;;;7.50;71.49;95664.78;5078799;28;20488;-83
2021/04/30 02:59:09;;;;;;;15.13;10.70;;;;;;;7.37;73.10;95662.97;5079581;28;20873;-84
2021/04/30 03:01:36;;;;;;;11.93;10.20;;;;;;;7.50;73.11;95662.81;5079041;28;20815;-84
2021/04/30 03:04:02;;;;;;;14.50;11.20;;;;;;;7.42;73.35;95672.13;5079068;28;20438;-84
2021/04/30 03:06:29;;;;;;;12.13;9.30;;;;;;;7.43;73.27;95670.84;5079350;28;20436;-84
2021/04/30 03:08:55;;;;;;;13.20;10.33;;;;;;;7.44;73.92;95670.31;5080668;28;20976;-85
2021/04/30 03:11:21;;;;;;;12.93;9.93;;;;;;;7.45;74.82;95671.75;5079363;28;20473;-83
2021/04/30 03:13:47;;;;;;;13.07;10.00;;;;;;;7.39;74.67;95675.88;5081425;28;20571;-84
2021/04/30 03:16:13;;;;;;;14.60;11.23;;;;;;;7.31;75.96;95677.81;5078711;28;20491;-84
2021/04/30 03:18:39;;;;;;;9.87;8.87;;;;;;;7.49;74.31;95680.16;5080470;28;20473;-84
2021/04/30 03:21:05;;;;;;;13.17;10.20;;;;;;;7.45;73.63;95689.84;5079340;28;20438;-83
2021/04/30 03:23:32;;;;;;;14.83;10.77;;;;;;;7.53;72.87;95677.13;5079668;28;20437;-85
2021/04/30 03:26:00;;;;;;;14.00;10.63;;;;;;;7.42;73.38;95686.22;5083102;28;20436;-84
2021/04/30 03:28:26;;;;;;;14.37;10.90;;;;;;;7.30;74.47;95676.41;5086863;28;20445;-84
2021/04/30 03:30:52;;;;;;;12.70;10.90;;;;;;;7.36;73.94;95680.31;5086354;28;20452;-84
2021/04/30 03:33:18;;;;;;;13.83;9.40;;;;;;;7.36;74.34;95677.63;5085953;28;20476;-84
2021/04/30 03:35:44;;;;;;;14.73;10.20;;;;;;;7.28;74.36;95676.91;5086429;28;20551;-84
2021/04/30 03:38:10;;;;;;;14.50;10.70;;;;;;;7.29;74.04;95664.94;5084936;28;20483;-84
2021/04/30 03:40:37;;;;;;;16.83;11.23;;;;;;;7.33;74.06;95662.59;5084644;28;20415;-84
2021/04/30 03:43:03;;;;;;;20.33;11.87;;;;;;;7.32;74.43;95663.88;5083077;28;20429;-84
2021/04/30 03:45:29;;;;;;;15.73;11.37;;;;;;;7.41;72.19;95668.72;5084074;28;20462;-84
2021/04/30 03:47:56;;;;;;;14.90;12.50;;;;;;;7.35;73.32;95678.91;5082823;28;20450;-84
2021/04/30 03:50:22;;;;;;;16.00;11.70;;;;;;;7.39;73.12;95675.88;5083228;28;20456;-84
2021/04/30 03:52:48;;;;;;;20.53;11.33;;;;;;;7.26;74.05;95673.34;5083460;28;20457;-81
2021/04/30 03:55:15;;;;;;;17.00;12.40;;;;;;;7.30;73.85;95671.72;5096084;28;20536;-82
2021/04/30 03:57:42;;;;;;;16.00;11.83;;;;;;;7.35;73.63;95668.16;5098950;28;20436;-84
2021/04/30 04:00:09;;;;;;;15.17;11.73;;;;;;;7.30;73.45;95655.63;5098663;28;20434;-85
2021/04/30 04:02:35;;;;;;;14.97;11.67;;;;;;;7.04;74.11;95647.91;5095964;28;20446;-82
2021/04/30 04:05:01;;;;;;;15.07;11.33;;;;;;;7.10;74.70;95653.81;5079137;28;20412;-81
2021/04/30 04:07:27;;;;;;;16.03;11.47;;;;;;;7.14;74.81;95661.53;5079412;28;20450;-81
2021/04/30 04:09:53;;;;;;;21.73;11.50;;;;;;;7.16;75.15;95661.69;5079524;28;20476;-81
2021/04/30 04:12:19;;;;;;;23.10;12.87;;;;;;;7.00;76.62;95661.66;5080235;28;20497;-81
2021/04/30 04:14:46;;;;;;;16.27;11.80;;;;;;;7.07;75.44;95662.94;5086993;28;20465;-86
2021/04/30 04:17:16;;;;;;;18.97;12.60;;;;;;;7.26;75.25;95667.97;5098734;28;20481;-84
2021/04/30 04:19:47;;;;;;;15.40;11.43;;;;;;;7.41;74.86;95666.03;5098719;28;20448;-85
2021/04/30 04:22:14;;;;;;;16.70;11.77;;;;;;;7.15;75.68;95660.97;5090184;28;20550;-82
2021/04/30 04:24:40;;;;;;;22.30;12.30;;;;;;;7.11;75.63;95660.59;5076743;28;20424;-82
2021/04/30 04:27:06;;;;;;;15.93;10.90;;;;;;;7.07;75.65;95657.56;5077447;28;20456;-82
2021/04/30 04:29:32;;;;;;;18.20;12.47;;;;;;;6.89;76.55;95661.97;5077974;28;20472;-82
2021/04/30 04:31:59;;;;;;;18.30;10.73;;;;;;;7.17;75.88;95660.44;5078934;28;20497;-81
2021/04/30 04:34:25;;;;;;;23.00;12.87;;;;;;;7.12;75.83;95664.72;5078498;28;20499;-81
2021/04/30 04:36:51;;;;;;;17.23;11.93;;;;;;;6.99;75.98;95662.91;5078211;28;20504;-81
2021/04/30 04:39:17;;;;;;;16.50;11.40;;;;;;;7.10;75.41;95674.56;5079074;28;20457;-81
2021/04/30 04:41:43;;;;;;;22.77;12.93;;;;;;;6.90;75.64;95671.47;5080231;28;20439;-82
2021/04/30 04:44:10;;;;;;;17.07;11.53;;;;;;;7.22;74.85;95675.66;5078954;28;20858;-81
2021/04/30 04:46:36;;;;;;;15.57;11.03;;;;;;;7.16;74.41;95681.19;5080261;28;20515;-81
2021/04/30 04:49:03;;;;;;;16.93;11.27;;;;;;;7.10;74.07;95680.63;5080807;28;20500;-81
2021/04/30 04:51:30;;;;;;;23.23;11.70;;;;;;;7.18;74.36;95686.00;5098223;28;20467;-81
2021/04/30 04:53:56;;;;;;;19.10;13.00;;;;;;;7.31;73.67;95686.56;5100049;28;20483;-80
2021/04/30 04:56:25;;;;;;;17.77;11.97;;;;;;;7.27;73.44;95693.53;5099987;28;20544;-81
2021/04/30 04:58:51;;;;;;;15.47;11.10;;;;;;;7.28;73.73;95694.97;5100827;28;20441;-81
2021/04/30 05:01:17;;;;;;;19.10;11.70;;;;;;;7.45;73.58;95700.56;5100962;28;20878;-81
2021/04/30 05:03:43;;;;;;;15.43;11.10;;;;;;;7.55;73.29;95696.81;5101016;28;20421;-81
2021/04/30 05:06:10;;;;;;;16.77;11.47;;;;;;;7.54;72.98;95706.13;5100178;28;20443;-81
2021/04/30 05:08:36;;;;;;;14.30;10.80;;;;;;;7.52;72.75;95707.88;5101018;28;20448;-82
2021/04/30 05:11:03;;;;;;;16.70;11.27;;;;;;;7.48;72.90;95716.31;5100300;28;20437;-81
2021/04/30 05:13:30;;;;;;;18.87;11.77;;;;;;;7.50;72.24;95710.41;5099962;28;20437;-81
2021/04/30 05:15:56;;;;;;;13.67;11.33;;;;;;;7.46;71.91;95704.66;5100905;28;20495;-81
2021/04/30 05:18:22;;;;;;;16.07;11.33;;;;;;;7.47;72.33;95704.13;5100903;28;20480;-81
2021/04/30 05:20:48;;;;;;;16.57;11.57;;;;;;;7.61;72.75;95696.66;5100664;28;20531;-81
2021/04/30 05:23:15;;;;;;;15.60;10.60;;;;;;;7.55;71.96;95688.03;5100115;28;20477;-81
2021/04/30 05:25:42;;;;;;;20.03;12.17;;;;;;;7.59;71.68;95695.72;5099632;28;20399;-82
2021/04/30 05:28:08;;;;;;;16.70;10.87;;;;;;;7.52;71.39;95703.25;5100346;28;21020;-80
2021/04/30 05:30:34;;;;;;;19.93;11.27;;;;;;;7.54;70.93;95698.06;5099406;28;20484;-80
2021/04/30 05:33:01;;;;;;;17.53;12.03;;;;;;;7.68;70.92;95701.28;5098263;28;20437;-81
2021/04/30 05:35:27;;;;;;;13.70;10.43;;;;;;;7.68;71.04;95708.63;5099649;28;20488;-80
2021/04/30 05:37:54;;;;;;;17.13;12.00;;;;;;;7.57;71.79;95698.97;5099689;28;20419;-80
2021/04/30 05:40:21;;;;;;;13.70;9.90;;;;;;;7.39;73.22;95698.03;5099349;28;20421;-83
2021/04/30 05:42:47;;;;;;;15.67;11.63;;;;;;;7.43;72.48;95695.72;5100083;28;20503;-83
2021/04/30 05:45:14;;;;;;;19.33;12.30;;;;;;;7.46;72.53;95691.25;5101413;28;20950;-84
2021/04/30 05:47:40;;;;;;;19.27;12.87;;;;;;;7.41;73.26;95687.50;5099830;28;20459;-83
2021/04/30 05:50:08;;;;;;;20.77;13.43;;;;;;;7.46;73.21;95693.94;5099252;28;20523;-83
2021/04/30 05:52:34;;;;;;;18.53;13.90;;;;;;;7.45;73.59;95690.56;5099257;28;20445;-84
2021/04/30 05:55:01;;;;;;;17.90;13.17;;;;;;;7.42;73.61;95688.91;5099196;28;20475;-84
2021/04/30 05:57:28;;;;;;;21.97;12.53;;;;;;;7.45;73.35;95679.81;5098899;28;21038;-86
2021/04/30 05:59:54;;;;;;;15.43;12.27;;;;;;;7.40;73.63;95669.94;5098580;28;20487;-84
2021/04/30 06:02:20;;;;;;;21.63;12.73;;;;;;;7.43;73.13;95658.16;5098278;28;20436;-84
2021/04/30 06:04:46;;;;;;;16.70;12.50;;;;;;;7.35;73.16;95667.44;5098507;28;20928;-84
2021/04/30 06:07:12;;;;;;;19.23;12.57;;;;;;;7.26;74.39;95663.31;5098454;28;20981;-85
2021/04/30 06:09:38;;;;;;;16.40;11.17;;;;;;;7.31;73.07;95661.72;5097878;28;20448;-85
2021/04/30 06:12:06;;;;;;;20.00;14.20;;;;;;;7.33;73.59;95653.84;5098164;28;20535;-84
2021/04/30 06:14:33;;;;;;;14.13;11.80;;;;;;;7.31;73.25;95646.34;5099825;28;21084;-84
2021/04/30 06:17:03;;;;;;;17.73;12.73;;;;;;;7.37;72.17;95652.25;5121240;28;20467;-86
2021/04/30 06:19:30;;;;;;;15.67;11.77;;;;;;;7.60;70.62;95648.84;5121974;28;20480;-84
2021/04/30 06:21:56;;;;;;;15.50;11.43;;;;;;;7.41;71.21;95647.25;5124406;28;20410;-84
2021/04/30 06:24:23;;;;;;;21.67;11.37;;;;;;;7.63;70.79;95655.81;5122307;28;20789;-83
2021/04/30 06:26:49;;;;;;;15.00;10.80;;;;;;;7.52;70.54;95657.63;5122931;28;20938;-84
2021/04/30 06:29:15;;;;;;;15.73;11.10;;;;;;;7.54;70.10;95643.66;5123434;28;20573;-84
2021/04/30 06:31:43;;;;;;;20.40;11.37;;;;;;;7.56;71.08;95651.88;5122790;28;20831;-83
2021/04/30 06:34:09;;;;;;;17.80;11.80;;;;;;;7.68;70.34;95654.91;5121081;28;20769;-85
2021/04/30 06:36:35;;;;;;;16.13;11.50;;;;;;;7.40;68.96;95659.22;5123101;28;20554;-83
2021/04/30 06:39:03;;;;;;;13.00;10.37;;;;;;;7.47;68.59;95663.88;5123375;28;20424;-85
2021/04/30 06:41:29;;;;;;;15.43;10.37;;;;;;;7.52;68.86;95660.28;5121989;28;20440;-84
2021/04/30 06:43:55;;;;;;;16.47;11.00;;;;;;;7.71;68.22;95662.63;5121576;28;20449;-83
2021/04/30 06:46:23;;;;;;;14.33;10.63;;;;;;;7.55;69.16;95653.13;5122072;28;20455;-84
2021/04/30 06:48:50;;;;;;;14.23;10.50;;;;;;;7.63;68.64;95651.19;5122285;28;20414;-84
2021/04/30 06:51:16;;;;;;;14.13;11.20;;;;;;;7.51;69.17;95658.88;5121136;28;20497;-85
2021/04/30 06:53:43;;;;;;;14.60;10.27;;;;;;;7.63;69.97;95653.16;5122784;28;20438;-85
2021/04/30 06:56:09;;;;;;;16.17;11.17;;;;;;;7.74;69.56;95666.91;5122642;28;20480;-85
2021/04/30 06:58:35;;;;;;;15.33;10.50;;;;;;;7.84;69.33;95669.78;5139003;27;20454;-83
2021/04/30 07:01:02;;;;;;;14.67;11.07;;;;;;;7.90;68.89;95667.63;5140450;27;20406;-83
2021/04/30 07:03:28;;;;;;;17.70;12.47;;;;;;;7.82;69.19;95675.69;5140605;27;20466;-81
2021/04/30 07:05:55;;;;;;;17.90;12.07;;;;;;;7.76;69.48;95685.91;5139997;27;20425;-82
2021/04/30 07:08:21;;;;;;;17.10;10.43;;;;;;;7.81;69.29;95670.84;5123336;28;20475;-84
2021/04/30 07:10:47;;;;;;;21.93;12.20;;;;;;;7.70;69.76;95660.50;5123435;28;20440;-85
2021/04/30 07:13:13;;;;;;;19.47;10.90;;;;;;;7.46;70.65;95659.03;5123735;28;20471;-82
2021/04/30 07:15:40;;;;;;;19.07;11.53;;;;;;;7.31;71.35;95650.97;5125394;28;20483;-85
2021/04/30 07:18:06;;;;;;;15.07;11.70;;;;;;;7.54;71.59;95647.06;5119677;28;20455;-84
2021/04/30 07:20:34;;;;;;;17.13;10.53;;;;;;;7.52;71.57;95644.19;5120171;28;20531;-84
2021/04/30 07:23:01;;;;;;;19.73;12.93;;;;;;;7.55;71.81;95645.81;5120296;28;20840;-85
2021/04/30 07:25:27;;;;;;;19.70;12.27;;;;;;;7.63;70.22;95637.03;5120943;28;20447;-83
2021/04/30 07:27:54;;;;;;;15.00;11.43;;;;;;;7.72;69.62;95633.81;5121670;28;20552;-84
2021/04/30 07:30:20;;;;;;;20.00;10.87;;;;;;;7.55;69.95;95635.06;5120020;28;20507;-84
2021/04/30 07:32:46;;;;;;;19.70;12.37;;;;;;;7.52;70.73;95633.44;5122985;28;20542;-82
2021/04/30 07:35:12;;;;;;;14.73;11.00;;;;;;;7.54;70.84;95643.66;5122238;28;20522;-84
2021/04/30 07:37:39;;;;;;;15.10;11.60;;;;;;;7.61;70.63;95636.88;5122535;28;20471;-84
2021/04/30 07:40:08;;;;;;;13.27;11.10;;;;;;;7.78;70.55;95639.72;5121501;28;20530;-86
2021/04/30 07:42:34;;;;;;;17.23;11.23;;;;;;;7.68;70.62;95638.81;5122478;28;20558;-85
2021/04/30 07:45:00;;;;;;;16.27;11.93;;;;;;;8.03;70.32;95632.50;5122151;28;20447;-84
2021/04/30 07:47:26;;;;;;;27.53;12.90;;;;;;;7.93;70.48;95631.63;5122694;28;20494;-85
2021/04/30 07:49:53;;;;;;;16.20;12.20;;;;;;;7.99;70.24;95638.25;5121320;28;20542;-85
2021/04/30 07:52:19;;;;;;;16.70;11.77;;;;;;;8.04;69.97;95631.97;5120339;28;20491;-84
2021/04/30 07:54:45;;;;;;;20.00;11.80;;;;;;;7.93;70.50;95626.25;5120576;28;20530;-85
2021/04/30 07:57:12;;;;;;;20.63;12.97;;;;;;;7.87;71.27;95631.09;5119669;28;20479;-84
2021/04/30 07:59:38;;;;;;;20.60;12.50;;;;;;;7.98;70.67;95634.16;5121420;28;20474;-84
2021/04/30 08:02:04;;;;;;;17.93;12.73;;;;;;;8.02;70.26;95636.44;5121787;28;20486;-84
2021/04/30 08:04:30;;;;;;;17.20;12.37;;;;;;;8.10;69.59;95647.91;5120787;28;20483;-85
2021/04/30 08:06:57;;;;;;;18.80;11.03;;;;;;;8.03;70.41;95645.94;5121514;28;20529;-84
2021/04/30 08:09:23;;;;;;;17.00;11.03;;;;;;;8.07;70.20;95655.09;5120640;28;20443;-85
2021/04/30 08:11:49;;;;;;;23.00;12.50;;;;;;;8.01;70.12;95665.31;5122013;28;20498;-84
2021/04/30 08:14:16;;;;;;;15.87;10.97;;;;;;;8.08;70.38;95658.50;5119831;28;20444;-84
2021/04/30 08:16:42;;;;;;;14.87;11.77;;;;;;;7.94;70.95;95676.03;5120375;28;20465;-84
2021/04/30 08:19:09;;;;;;;18.00;10.90;;;;;;;7.83;71.53;95671.75;5119581;28;20424;-85
2021/04/30 08:21:35;;;;;;;16.33;11.80;;;;;;;7.95;71.12;95672.13;5120747;28;20522;-85
2021/04/30 08:24:02;;;;;;;15.00;11.43;;;;;;;7.84;71.77;95661.72;5121434;28;20428;-85
2021/04/30 08:26:28;;;;;;;16.23;11.47;;;;;;;7.73;72.48;95659.41;5122633;28;20437;-84
2021/04/30 08:28:54;;;;;;;17.73;12.50;;;;;;;7.86;71.69;95664.59;5121369;28;20434;-85
2021/04/30 08:31:23;;;;;;;20.90;12.83;;;;;;;7.89;72.62;95658.84;5120994;28;20539;-85
2021/04/30 08:33:49;;;;;;;21.63;13.37;;;;;;;7.97;72.36;95656.16;5121815;28;20418;-85
2021/04/30 08:36:15;;;;;;;17.47;12.50;;;;;;;8.05;71.62;95652.22;5119610;28;20473;-85
2021/04/30 08:38:42;;;;;;;17.70;12.13;;;;;;;8.05;72.16;95646.13;5122171;28;20501;-84
2021/04/30 08:41:08;;;;;;;20.53;11.80;;;;;;;7.92;72.80;95640.97;5123228;28;20459;-82
2021/04/30 08:43:36;;;;;;;25.30;13.53;;;;;;;7.89;73.48;95644.72;5121089;28;20424;-83
2021/04/30 08:46:02;;;;;;;23.27;13.80;;;;;;;7.71;74.07;95635.06;5121719;28;20499;-84
2021/04/30 08:48:29;;;;;;;15.60;12.83;;;;;;;7.68;74.50;95625.38;5120242;28;20493;-83
2021/04/30 08:50:55;;;;;;;20.60;13.60;;;;;;;7.68;74.91;95617.34;5120998;28;20450;-83
2021/04/30 08:53:21;;;;;;;19.63;13.73;;;;;;;8.05;74.15;95611.91;5122361;28;20456;-83
2021/04/30 08:55:50;;;;;;;18.10;12.70;;;;;;;8.17;72.81;95614.22;5120543;28;20426;-84
2021/04/30 08:58:22;;;;;;;21.40;12.60;;;;;;;8.13;72.59;95617.28;5120828;28;20496;-84
2021/04/30 09:00:49;;;;;;;22.20;12.90;;;;;;;8.04;73.13;95631.25;5132620;28;20387;-84
2021/04/30 09:03:16;;;;;;;16.07;11.70;;;;;;;8.06;73.16;95610.66;5134169;28;20417;-84
2021/04/30 09:05:47;;;;;;;15.67;11.93;;;;;;;8.04;73.06;95625.91;5133012;28;20482;-84
2021/04/30 09:08:13;;;;;;;17.40;13.10;;;;;;;8.16;71.95;95626.94;5126988;28;20451;-85
2021/04/30 09:10:41;;;;;;;15.97;12.47;;;;;;;8.15;72.32;95622.81;5128587;28;20493;-84
2021/04/30 09:13:09;;;;;;;17.93;11.60;;;;;;;8.12;72.44;95634.63;5126229;28;20451;-82
2021/04/30 09:15:36;;;;;;;17.13;12.23;;;;;;;8.18;71.63;95645.91;5122636;28;20703;-82
2021/04/30 09:18:21;;;;;;;20.50;13.27;;;;;;;8.29;70.92;95640.19;5123650;28;21069;-83
2021/04/30 09:20:49;;;;;;;19.37;12.13;;;;;;;8.35;70.79;95656.13;5124913;28;20832;-83
2021/04/30 09:23:36;;;;;;;22.30;12.17;;;;;;;8.31;70.72;95653.06;5125052;28;20447;-82
2021/04/30 09:26:04;;;;;;;16.00;12.00;;;;;;;8.06;71.60;95655.63;5124243;28;20467;-80
2021/04/30 09:28:30;;;;;;;17.10;12.30;;;;;;;7.95;71.83;95661.38;5123394;28;20428;-83
2021/04/30 09:30:57;;;;;;;18.20;13.50;;;;;;;7.93;72.63;95655.81;5114410;28;20415;-82
2021/04/30 09:33:25;;;;;;;18.17;13.03;;;;;;;7.67;73.75;95653.50;5121535;28;20585;-82
2021/04/30 09:35:54;;;;;;;20.37;13.40;;;;;;;7.75;73.39;95656.91;5124293;28;20581;-83
2021/04/30 09:38:23;;;;;;;19.90;12.90;;;;;;;7.78;73.92;95647.75;5118677;28;20948;-81
2021/04/30 09:40:54;;;;;;;20.00;13.47;;;;;;;7.74;74.50;95637.38;5103468;28;20444;-82
2021/04/30 09:43:20;;;;;;;19.80;13.23;;;;;;;7.86;74.13;95635.75;5105289;28;20490;-84
2021/04/30 09:45:48;;;;;;;18.40;12.43;;;;;;;7.98;72.82;95636.84;5103678;28;20443;-83
2021/04/30 09:48:15;;;;;;;20.47;12.23;;;;;;;7.86;74.25;95645.81;5125555;28;20467;-82
2021/04/30 09:50:43;;;;;;;18.93;13.00;;;;;;;7.99;74.06;95634.84;5129104;28;20450;-83
2021/04/30 09:53:12;;;;;;;19.40;14.20;;;;;;;7.92;74.07;95638.28;5128719;28;20465;-82
2021/04/30 09:55:44;;;;;;;18.57;13.30;;;;;;;7.81;74.91;95635.94;5127883;28;20535;-83
2021/04/30 09:58:12;;;;;;;17.90;13.23;;;;;;;7.94;74.54;95633.06;5127979;28;20942;-82
2021/04/30 10:00:39;;;;;;;19.57;13.50;;;;;;;7.69;75.31;95637.56;5127546;28;20425;-82
2021/04/30 10:03:13;;;;;;;23.17;13.77;;;;;;;7.78;75.43;95629.69;5128547;28;20440;-82
2021/04/30 10:06:04;;;;;;;21.33;14.27;;;;;;;7.74;75.67;95625.91;5134980;28;20423;-82
2021/04/30 10:08:32;;;;;;;20.87;13.60;;;;;;;7.77;76.13;95636.31;5131645;28;20453;-83
2021/04/30 10:10:59;;;;;;;23.63;14.47;;;;;;;7.69;76.24;95630.25;5130864;28;20468;-82
2021/04/30 10:13:25;;;;;;;24.60;14.87;;;;;;;7.72;76.69;95634.53;5127137;28;20418;-86
2021/04/30 10:15:52;;;;;;;21.70;14.53;;;;;;;7.80;77.28;95629.16;5123640;28;20565;-88
2021/04/30 10:18:18;;;;;;;24.83;15.53;;;;;;;7.68;78.32;95633.44;5122834;28;20487;-86
2021/04/30 10:20:45;;;;;;;20.83;15.40;;;;;;;7.82;79.99;95621.28;5121615;28;20458;-86
2021/04/30 10:23:16;;;;;;;27.33;15.97;;;;;;;7.90;79.79;95620.00;5122562;28;20524;-86
2021/04/30 10:25:46;;;;;;;25.10;15.90;;;;;;;8.03;80.07;95635.91;5122350;28;20404;-87
2021/04/30 10:28:15;;;;;;;27.43;17.37;;;;;;;8.01;80.22;95638.44;5123141;28;20510;-86
2021/04/30 10:30:46;;;;;;;27.70;15.77;;;;;;;8.04;81.76;95642.72;5123263;28;20430;-86
2021/04/30 10:33:18;;;;;;;25.27;17.77;;;;;;;7.98;80.89;95644.19;5123313;28;20451;-86
2021/04/30 10:35:48;;;;;;;25.20;15.60;;;;;;;7.93;81.13;95653.13;5123729;28;20535;-86
2021/04/30 10:38:17;;;;;;;26.27;17.23;;;;;;;7.88;81.38;95654.75;5114826;28;20555;-86
2021/04/30 10:40:58;;;;;;;22.90;15.53;;;;;;;7.74;82.10;95655.47;5101108;28;20479;-87
2021/04/30 10:43:24;;;;;;;24.23;16.83;;;;;;;7.72;83.17;95658.69;5100786;28;20669;-86
2021/04/30 10:46:04;;;;;;;30.17;19.37;;;;;;;7.57;83.84;95668.72;5098766;28;20462;-86
2021/04/30 10:48:31;;;;;;;26.77;18.27;;;;;;;7.44;85.29;95672.28;5100184;28;20405;-86
2021/04/30 10:51:08;;;;;;;27.37;18.40;;;;;;;7.54;85.15;95678.56;5098888;28;20440;-86
2021/04/30 10:53:35;;;;;;;26.50;18.83;;;;;;;7.62;84.87;95673.19;5099620;28;20528;-86
2021/04/30 10:56:25;;;;;;;28.03;18.87;;;;;;;7.39;86.09;95668.50;5101677;28;20451;-87
2021/04/30 10:59:02;;;;;;;28.20;18.80;;;;;;;7.31;87.10;95677.81;5118917;28;20437;-83
2021/04/30 11:01:31;;;;;;;32.73;21.70;;;;;;;7.04;87.35;95680.09;5119856;28;20394;-84
2021/04/30 11:04:18;;;;;;;32.47;21.17;;;;;;;7.03;88.15;95691.34;5116391;28;20441;-87
2021/04/30 11:06:54;;;;;;;36.20;22.27;;;;;;;6.97;90.46;95678.81;5100153;28;20979;-86
2021/04/30 11:09:31;;;;;;;33.97;23.50;;;;;;;6.89;90.55;95686.09;5100574;28;20442;-87
2021/04/30 11:12:01;;;;;;;35.70;22.47;;;;;;;6.71;92.09;95689.06;5101305;28;20843;-86
2021/04/30 11:14:29;;;;;;;30.10;21.37;;;;;;;6.66;91.33;95684.59;5100523;28;20481;-85
2021/04/30 11:16:57;;;;;;;38.37;23.23;;;;;;;6.45;93.18;95684.69;5099126;28;20518;-86
2021/04/30 11:19:25;;;;;;;37.03;21.00;;;;;;;6.48;92.71;95683.63;5099099;28;20444;-87
2021/04/30 11:21:54;;;;;;;34.20;19.20;;;;;;;6.38;92.79;95672.69;5098046;28;20441;-86
2021/04/30 11:24:45;;;;;;;31.50;18.50;;;;;;;5.97;91.05;95682.78;5098056;28;20456;-84
2021/04/30 11:27:31;;;;;;;41.30;22.57;;;;;;;6.11;94.13;95681.47;5097858;28;20977;-87
2021/04/30 11:30:16;;;;;;;30.90;21.53;;;;;;;6.26;95.23;95684.25;5100776;28;20474;-87